Cambridge, Canada
Current Conditions -  °F | °C
As of 9:00 AM on Thursday 18 Dec 2014 (Local Time) from CYKF Reporting Station
Overcast Overcast  
Wind Chill: 17°   Ceiling: 1200
Heat Index: 28°   Visibility: 9mi
Dew Point: 25°   Wind: 15mph
Humidity: 86%   Direction: 310°NW
Pressure: 30.08"   Gusts: NA
Location:  43.38°N, 80.32°W
Report Text: CYKF 181400Z AUTO 31013KT 290V360 9SM OVC012 M02/M04 A3008 RMK SLP199
Loading
Personal Weather Stations






























Interactive Weather Map New forecast layout! Learn more

10-Day Weather Forecast

Advertisements
Track Severe Weather on mobile